createdAt,value
2019-06-26T00:00:30.791Z,26.50
2019-06-26T00:02:59.227Z,26.59
2019-06-26T00:05:27.741Z,26.52
2019-06-26T00:07:57.669Z,26.52
2019-06-26T00:10:26.290Z,26.49
2019-06-26T00:12:54.811Z,26.53
2019-06-26T00:15:23.282Z,26.49
2019-06-26T00:17:52.546Z,26.48
2019-06-26T00:20:22.118Z,26.47
2019-06-26T00:22:50.624Z,26.52
2019-06-26T00:25:19.111Z,26.45
2019-06-26T00:27:47.714Z,26.46
2019-06-26T00:30:16.494Z,26.41
2019-06-26T00:32:44.979Z,26.38
2019-06-26T00:35:13.629Z,26.30
2019-06-26T00:37:43.722Z,26.27
2019-06-26T00:40:17.443Z,26.27
2019-06-26T00:42:47.527Z,26.18
2019-06-26T00:45:16.599Z,26.19
2019-06-26T00:47:46.977Z,26.11
2019-06-26T00:50:15.737Z,26.15
2019-06-26T00:52:47.110Z,26.12
2019-06-26T00:55:17.816Z,26.07
2019-06-26T00:57:46.318Z,26.04
2019-06-26T01:00:15.846Z,26.06
2019-06-26T01:02:44.367Z,25.92
2019-06-26T01:05:13.830Z,25.85
2019-06-26T01:07:42.333Z,25.80
2019-06-26T01:10:12.354Z,25.89
2019-06-26T01:12:40.855Z,25.82
2019-06-26T01:15:11.973Z,25.75
2019-06-26T01:17:40.479Z,25.64
2019-06-26T01:20:09.393Z,25.69
2019-06-26T01:22:41.408Z,25.68
2019-06-26T01:25:10.050Z,25.59
2019-06-26T01:27:38.664Z,25.65
2019-06-26T01:30:08.046Z,25.54
2019-06-26T01:32:36.574Z,25.62
2019-06-26T01:35:12.825Z,25.60
2019-06-26T01:37:41.382Z,25.50
2019-06-26T01:40:10.234Z,25.42
2019-06-26T01:42:38.680Z,25.41
2019-06-26T01:45:10.037Z,25.41
2019-06-26T01:47:38.577Z,25.31
2019-06-26T01:50:07.804Z,25.30
2019-06-26T01:52:38.568Z,25.23
2019-06-26T01:55:10.010Z,25.29
2019-06-26T01:57:38.563Z,25.27
2019-06-26T02:00:11.778Z,25.19
2019-06-26T02:02:40.282Z,25.13
2019-06-26T02:05:09.198Z,25.16
2019-06-26T02:07:37.868Z,25.00
2019-06-26T02:10:15.600Z,24.94
2019-06-26T02:12:44.206Z,24.98
2019-06-26T02:15:13.229Z,25.18
2019-06-26T02:17:43.399Z,25.07
2019-06-26T02:20:12.339Z,25.04
2019-06-26T02:22:41.701Z,24.97
2019-06-26T02:25:10.390Z,24.94
2019-06-26T02:27:42.187Z,24.96
2019-06-26T02:30:14.367Z,25.05
2019-06-26T02:32:42.919Z,24.99
2019-06-26T02:35:11.674Z,25.01
2019-06-26T02:37:40.286Z,24.97
2019-06-26T02:40:12.429Z,24.86
2019-06-26T02:42:41.182Z,24.92
2019-06-26T02:45:12.311Z,24.76
2019-06-26T02:47:41.952Z,24.67
2019-06-26T02:50:11.428Z,24.59
2019-06-26T02:52:39.941Z,24.53
2019-06-26T02:55:08.565Z,24.49
2019-06-26T02:57:37.143Z,24.30
2019-06-26T03:00:08.819Z,24.50
2019-06-26T03:02:37.412Z,24.37
2019-06-26T03:05:09.022Z,24.43
2019-06-26T03:07:37.281Z,24.43
2019-06-26T03:10:07.965Z,24.37
2019-06-26T03:12:36.489Z,24.37
2019-06-26T03:15:09.967Z,24.33
2019-06-26T03:17:54.162Z,24.35
2019-06-26T03:20:47.321Z,24.22
2019-06-26T03:23:38.762Z,24.15
2019-06-26T04:04:46.162Z,24.07
2019-06-26T04:13:55.068Z,24.00
2019-06-26T04:22:21.373Z,24.09
2019-06-26T04:24:49.908Z,24.13
2019-06-26T04:27:18.555Z,24.16
2019-06-26T04:29:48.337Z,24.11
2019-06-26T04:32:16.872Z,24.23
2019-06-26T04:34:45.493Z,24.24
2019-06-26T04:37:15.627Z,24.23
2019-06-26T04:39:45.787Z,24.31
2019-06-26T04:42:14.387Z,24.38
2019-06-26T04:45:02.333Z,24.36
2019-06-26T04:47:32.680Z,24.45
2019-06-26T04:50:01.185Z,24.44
2019-06-26T04:52:29.744Z,24.49
2019-06-26T04:54:58.288Z,24.45
2019-06-26T04:57:27.368Z,24.61
2019-06-26T04:59:55.907Z,24.59
2019-06-26T05:02:24.442Z,24.64
2019-06-26T05:05:00.813Z,24.66
2019-06-26T05:07:29.309Z,24.69
2019-06-26T05:10:08.938Z,24.74
2019-06-26T05:12:34.994Z,24.80
2019-06-26T05:15:05.330Z,24.87
2019-06-26T05:17:33.937Z,24.95
2019-06-26T05:20:54.640Z,25.01
2019-06-26T05:23:02.431Z,25.01
2019-06-26T05:25:31.123Z,25.00
2019-06-26T05:27:59.739Z,25.14
2019-06-26T05:30:30.490Z,25.03
2019-06-26T05:32:59.450Z,25.19
2019-06-26T05:35:28.101Z,25.23
2019-06-26T05:37:57.223Z,25.21
2019-06-26T05:40:25.802Z,25.23
2019-06-26T05:42:54.435Z,25.28
2019-06-26T05:45:23.451Z,25.37
2019-06-26T05:47:52.095Z,25.40
2019-06-26T05:50:22.869Z,25.43
2019-06-26T05:52:53.203Z,25.48
2019-06-26T05:55:23.618Z,25.49
2019-06-26T05:57:55.087Z,25.49
2019-06-26T06:00:24.469Z,25.52
2019-06-26T06:02:54.095Z,25.48
2019-06-26T06:05:42.269Z,25.66
2019-06-26T06:08:11.127Z,25.70
2019-06-26T06:10:46.724Z,25.87
2019-06-26T06:13:15.334Z,25.90
2019-06-26T06:16:00.748Z,26.04
2019-06-26T06:18:30.440Z,25.94
2019-06-26T06:23:51.079Z,26.39
2019-06-26T06:26:19.621Z,26.62
2019-06-26T06:28:48.312Z,26.59
2019-06-26T06:31:21.142Z,26.57
2019-06-26T06:33:56.765Z,26.58
2019-06-26T06:36:25.445Z,26.39
2019-06-26T06:38:55.683Z,26.33
2019-06-26T06:41:24.191Z,26.32
2019-06-26T06:43:53.351Z,26.58
2019-06-26T06:46:21.861Z,26.62
2019-06-26T06:48:50.430Z,26.88
2019-06-26T06:51:19.922Z,26.89
2019-06-26T06:53:48.420Z,26.74
2019-06-26T06:56:17.590Z,26.83
2019-06-26T06:58:46.101Z,26.94
2019-06-26T07:01:14.594Z,27.07
2019-06-26T07:03:43.097Z,27.32
2019-06-26T07:06:11.616Z,26.98
2019-06-26T07:08:44.542Z,27.03
2019-06-26T07:11:12.940Z,26.73
2019-06-26T07:13:42.438Z,27.20
2019-06-26T07:16:10.918Z,27.16
2019-06-26T07:18:39.440Z,27.42
2019-06-26T07:21:08.034Z,27.51
2019-06-26T07:23:36.559Z,27.44
2019-06-26T07:26:05.032Z,27.37
2019-06-26T07:28:33.646Z,27.63
2019-06-26T07:31:02.194Z,27.84
2019-06-26T07:33:30.788Z,28.09
2019-06-26T07:35:59.499Z,27.96
2019-06-26T07:38:27.968Z,27.81
2019-06-26T07:40:56.432Z,28.08
2019-06-26T07:43:24.902Z,28.06
2019-06-26T07:45:53.373Z,28.39
2019-06-26T07:48:21.914Z,28.20
2019-06-26T07:50:50.462Z,28.46
2019-06-26T07:53:19.054Z,28.02
2019-06-26T07:55:47.528Z,28.43
2019-06-26T07:58:16.138Z,28.58
2019-06-26T08:00:44.584Z,28.63
2019-06-26T08:03:13.140Z,28.97
2019-06-26T08:05:43.079Z,28.44
2019-06-26T08:08:14.581Z,28.71
2019-06-26T08:10:42.548Z,28.58
2019-06-26T08:13:11.069Z,28.59
2019-06-26T08:15:39.489Z,28.76
2019-06-26T08:18:08.009Z,29.28
2019-06-26T08:20:51.594Z,29.19
2019-06-26T08:23:06.598Z,29.32
2019-06-26T08:25:35.034Z,29.54
2019-06-26T08:28:04.418Z,29.59
2019-06-26T08:30:32.918Z,29.69
2019-06-26T08:33:01.407Z,29.27
2019-06-26T08:35:29.868Z,29.58
2019-06-26T08:38:09.414Z,29.95
2019-06-26T08:40:28.685Z,30.11
2019-06-26T08:42:57.221Z,29.80
2019-06-26T08:45:25.666Z,30.08
2019-06-26T08:47:55.624Z,30.23
2019-06-26T08:50:24.358Z,30.27
2019-06-26T08:52:54.582Z,30.36
2019-06-26T08:55:23.067Z,30.68
2019-06-26T08:57:51.541Z,30.63
2019-06-26T09:00:20.355Z,30.70
2019-06-26T09:02:48.817Z,30.68
2019-06-26T09:05:17.522Z,30.45
2019-06-26T09:07:45.978Z,30.53
2019-06-26T09:10:14.912Z,31.06
2019-06-26T09:12:43.347Z,31.19
2019-06-26T09:15:12.136Z,30.81
2019-06-26T09:17:40.619Z,30.59
2019-06-26T09:20:11.887Z,30.93
2019-06-26T09:22:40.383Z,31.10
2019-06-26T09:25:20.813Z,31.29
2019-06-26T09:27:39.340Z,30.93
2019-06-26T09:30:08.948Z,31.13
2019-06-26T09:32:37.394Z,31.52
2019-06-26T09:35:07.906Z,31.01
2019-06-26T09:37:36.443Z,31.31
2019-06-26T09:40:06.642Z,31.26
2019-06-26T09:42:35.078Z,31.69
2019-06-26T09:45:04.587Z,31.72
2019-06-26T09:47:33.034Z,31.67
2019-06-26T09:50:01.939Z,31.56
2019-06-26T09:52:30.578Z,31.79
2019-06-26T09:55:00.627Z,31.88
2019-06-26T09:57:29.176Z,31.93
2019-06-26T09:59:58.830Z,32.00
2019-06-26T10:02:27.262Z,32.09
2019-06-26T10:04:55.731Z,32.10
2019-06-26T10:07:24.164Z,32.26
2019-06-26T10:09:52.713Z,32.16
2019-06-26T10:12:21.248Z,31.93
2019-06-26T10:14:52.713Z,31.90
2019-06-26T10:17:21.190Z,31.84
2019-06-26T10:19:49.651Z,31.95
2019-06-26T10:22:19.225Z,32.05
2019-06-26T10:24:47.715Z,32.38
2019-06-26T10:27:16.169Z,32.18
2019-06-26T10:29:44.615Z,32.24
2019-06-26T10:32:13.171Z,32.48
2019-06-26T10:34:42.022Z,32.39
2019-06-26T10:37:10.494Z,32.31
2019-06-26T10:39:38.982Z,32.09
2019-06-26T10:42:07.430Z,32.01
2019-06-26T10:44:35.874Z,31.92
2019-06-26T10:47:04.415Z,31.93
2019-06-26T10:49:32.920Z,31.87
2019-06-26T10:52:04.334Z,31.82
2019-06-26T10:54:35.450Z,32.02
2019-06-26T10:57:05.465Z,32.05
2019-06-26T10:59:35.287Z,32.02
2019-06-26T11:02:18.791Z,32.09
2019-06-26T11:04:57.278Z,31.94
2019-06-26T11:07:31.455Z,32.13
2019-06-26T11:10:01.686Z,32.01
2019-06-26T11:12:33.577Z,32.10
2019-06-26T11:15:07.639Z,32.37
2019-06-26T11:17:39.530Z,32.61
2019-06-26T11:20:36.533Z,32.30
2019-06-26T11:23:15.982Z,32.38
2019-06-26T11:25:47.397Z,32.45
2019-06-26T11:28:24.567Z,32.65
2019-06-26T11:30:55.526Z,32.21
2019-06-26T11:33:37.462Z,32.16
2019-06-26T11:36:07.947Z,32.28
2019-06-26T11:38:38.963Z,32.25
2019-06-26T11:41:10.465Z,32.40
2019-06-26T11:43:48.811Z,32.78
2019-06-26T11:46:33.528Z,32.55
2019-06-26T11:49:08.144Z,32.63
2019-06-26T11:51:32.360Z,32.56
2019-06-26T11:54:01.028Z,32.61
2019-06-26T11:56:44.114Z,32.56
2019-06-26T11:59:14.213Z,32.38
2019-06-26T12:01:43.113Z,32.53
2019-06-26T12:07:07.022Z,32.52
2019-06-26T12:09:45.250Z,33.11
2019-06-26T12:12:37.096Z,32.93
2019-06-26T12:15:14.405Z,32.83
2019-06-26T12:18:01.471Z,33.02
2019-06-26T12:20:32.849Z,33.98
2019-06-26T12:23:04.356Z,34.15
2019-06-26T12:28:31.883Z,34.63
2019-06-26T12:31:07.541Z,34.51
2019-06-26T12:33:38.121Z,35.19
2019-06-26T12:36:11.269Z,35.22
2019-06-26T12:38:59.529Z,35.10
2019-06-26T12:41:36.359Z,34.45
2019-06-26T12:44:10.820Z,34.32
2019-06-26T12:47:00.070Z,34.30
2019-06-26T12:50:04.010Z,34.35
2019-06-26T12:52:48.540Z,34.02
2019-06-26T12:55:27.496Z,33.90
2019-06-26T12:58:19.716Z,34.38
2019-06-26T13:00:37.812Z,34.69
2019-06-26T13:03:09.229Z,35.00
2019-06-26T13:05:39.399Z,34.96
2019-06-26T13:08:13.084Z,35.08
2019-06-26T13:10:49.409Z,34.92
2019-06-26T13:13:16.044Z,35.16
2019-06-26T13:15:52.847Z,35.36
2019-06-26T13:18:23.563Z,35.74
2019-06-26T13:20:53.702Z,35.07
2019-06-26T13:23:29.432Z,35.29
2019-06-26T13:26:09.658Z,36.23
2019-06-26T13:28:42.821Z,36.14
2019-06-26T13:31:11.344Z,35.25
2019-06-26T13:33:44.271Z,35.39
2019-06-26T13:36:18.517Z,34.94
2019-06-26T13:38:47.030Z,34.26
2019-06-26T13:41:15.576Z,34.25
2019-06-26T13:43:50.800Z,34.40
2019-06-26T13:46:24.333Z,35.53
2019-06-26T13:49:03.203Z,35.00
2019-06-26T13:51:35.489Z,34.86
2019-06-26T13:54:05.792Z,34.38
2019-06-26T13:56:55.287Z,34.63
2019-06-26T13:59:23.847Z,33.75
2019-06-26T14:02:13.404Z,33.00
2019-06-26T14:08:06.479Z,32.42
2019-06-26T14:14:56.126Z,32.36
2019-06-26T14:17:34.347Z,31.94
2019-06-26T14:19:54.793Z,31.96
2019-06-26T14:22:52.651Z,32.06
2019-06-26T14:31:22.062Z,31.81
2019-06-26T14:34:42.707Z,31.84
2019-06-26T14:37:14.768Z,31.95
2019-06-26T14:39:49.340Z,31.66
2019-06-26T14:42:25.736Z,31.71
2019-06-26T14:45:00.299Z,32.12
2019-06-26T14:50:39.523Z,31.58
2019-06-26T14:53:22.570Z,31.88
2019-06-26T14:55:53.320Z,32.00
2019-06-26T14:58:36.536Z,31.78
2019-06-26T15:07:30.798Z,31.01
2019-06-26T15:10:23.091Z,30.45
2019-06-26T15:12:59.712Z,30.53
2019-06-26T15:15:49.800Z,30.31
2019-06-26T15:18:24.250Z,30.28
2019-06-26T15:26:44.302Z,30.24
2019-06-26T15:32:52.287Z,30.03
2019-06-26T15:39:03.393Z,30.01
2019-06-26T15:44:27.496Z,29.84
2019-06-26T15:47:00.755Z,29.80
2019-06-26T15:52:43.874Z,29.79
2019-06-26T15:55:20.874Z,29.72
2019-06-26T15:57:55.432Z,29.51
2019-06-26T16:00:36.398Z,29.52
2019-06-26T16:03:29.475Z,29.35
2019-06-26T16:06:08.465Z,29.35
2019-06-26T16:11:53.981Z,29.32
2019-06-26T16:15:11.079Z,28.96
2019-06-26T16:20:06.444Z,29.01
2019-06-26T16:25:24.627Z,28.80
2019-06-26T16:28:05.135Z,28.62
2019-06-26T16:30:34.586Z,28.85
2019-06-26T16:33:13.876Z,28.52
2019-06-26T16:35:46.215Z,28.76
2019-06-26T16:44:33.699Z,28.49
2019-06-26T16:46:59.220Z,28.50
2019-06-26T16:49:30.937Z,28.11
2019-06-26T16:52:06.064Z,28.19
2019-06-26T16:54:47.254Z,28.24
2019-06-26T16:58:30.655Z,28.13
2019-06-26T17:03:04.002Z,28.31
2019-06-26T17:22:40.253Z,27.77
2019-06-26T17:25:09.649Z,27.83
2019-06-26T17:27:38.119Z,27.55
2019-06-26T17:30:07.988Z,27.33
2019-06-26T17:32:36.421Z,27.15
2019-06-26T17:35:07.631Z,27.34
2019-06-26T17:37:38.947Z,27.07
2019-06-26T17:40:08.537Z,27.03
2019-06-26T17:42:36.988Z,27.04
2019-06-26T17:45:09.808Z,26.95
2019-06-26T17:47:38.344Z,26.94
2019-06-26T17:50:07.605Z,27.02
2019-06-26T17:52:38.502Z,26.71
2019-06-26T17:55:10.179Z,26.75
2019-06-26T17:57:38.722Z,26.72
2019-06-26T18:00:08.550Z,26.64
2019-06-26T18:02:37.010Z,26.66
2019-06-26T18:05:06.084Z,26.84
2019-06-26T18:07:34.587Z,26.77
2019-06-26T18:10:03.758Z,26.84
2019-06-26T18:12:35.229Z,26.75
2019-06-26T18:15:07.614Z,26.61
2019-06-26T18:17:36.099Z,26.69
2019-06-26T18:20:06.499Z,26.79
2019-06-26T18:22:35.158Z,26.79
2019-06-26T18:25:04.372Z,26.68
2019-06-26T18:27:32.894Z,26.57
2019-06-26T18:30:04.293Z,26.30
2019-06-26T18:32:32.781Z,26.29
2019-06-26T18:35:01.221Z,26.13
2019-06-26T18:37:29.681Z,26.00
2019-06-26T18:39:58.141Z,25.90
2019-06-26T18:42:26.700Z,25.81
2019-06-26T18:44:55.172Z,25.67
2019-06-26T18:47:23.615Z,25.48
2019-06-26T18:49:52.095Z,25.48
2019-06-26T18:52:20.556Z,25.55
2019-06-26T18:54:49.111Z,25.47
2019-06-26T18:57:18.932Z,25.27
2019-06-26T18:59:49.377Z,25.14
2019-06-26T19:02:19.486Z,25.12
2019-06-26T19:04:49.622Z,25.10
2019-06-26T19:07:19.146Z,24.95
2019-06-26T19:09:49.249Z,24.90
2019-06-26T19:12:20.557Z,24.91
2019-06-26T19:14:50.598Z,24.84
2019-06-26T19:17:19.082Z,24.72
2019-06-26T19:19:49.032Z,24.61
2019-06-26T19:22:17.593Z,24.44
2019-06-26T19:24:47.744Z,24.31
2019-06-26T19:27:20.489Z,24.20
2019-06-26T19:29:49.066Z,24.07
2019-06-26T19:32:17.682Z,23.94
2019-06-26T19:34:46.248Z,23.90
2019-06-26T19:37:14.875Z,23.92
2019-06-26T19:39:43.403Z,23.92
2019-06-26T19:42:11.953Z,23.69
2019-06-26T19:44:40.582Z,23.53
2019-06-26T19:47:09.190Z,23.45
2019-06-26T19:49:41.306Z,23.22
2019-06-26T19:52:09.756Z,23.20
2019-06-26T19:54:38.440Z,23.13
2019-06-26T19:57:06.955Z,23.02
2019-06-26T19:59:35.461Z,22.79
2019-06-26T20:02:06.197Z,22.93
2019-06-26T20:04:34.578Z,22.77
2019-06-26T20:07:03.108Z,22.69
2019-06-26T20:09:44.910Z,22.61
2019-06-26T20:12:23.081Z,22.57
2019-06-26T20:14:58.587Z,22.44
2019-06-26T20:18:18.199Z,22.39
2019-06-26T20:20:09.901Z,22.27
2019-06-26T20:22:56.180Z,22.27
2019-06-26T20:25:45.075Z,22.13
2019-06-26T20:28:21.947Z,21.97
2019-06-26T20:31:14.864Z,21.97
2019-06-26T20:36:44.018Z,21.66
2019-06-26T20:39:12.632Z,21.29
2019-06-26T20:41:41.302Z,21.09
2019-06-26T20:44:11.611Z,21.06
2019-06-26T20:46:43.004Z,20.83
2019-06-26T20:49:11.530Z,20.54
2019-06-26T20:51:43.065Z,20.55
2019-06-26T20:54:11.591Z,20.50
2019-06-26T20:56:45.172Z,20.49
2019-06-26T20:59:13.694Z,20.60
2019-06-26T21:01:42.242Z,20.53
2019-06-26T21:04:27.940Z,20.20
2019-06-26T21:06:56.385Z,20.37
2019-06-26T21:09:37.059Z,20.19
2019-06-26T21:12:19.153Z,20.25
2019-06-26T21:14:46.697Z,20.29
2019-06-26T21:17:15.155Z,20.18
2019-06-26T21:19:43.625Z,20.02
2019-06-26T21:22:12.082Z,20.09
2019-06-26T21:24:40.584Z,19.97
2019-06-26T21:27:09.021Z,19.65
2019-06-26T21:29:37.605Z,19.57
2019-06-26T21:32:07.619Z,19.32
2019-06-26T21:34:37.190Z,19.19
2019-06-26T21:37:05.736Z,19.01
2019-06-26T21:39:34.256Z,18.86
2019-06-26T21:42:02.806Z,18.85
2019-06-26T21:44:31.351Z,18.69
2019-06-26T21:47:02.492Z,18.55
2019-06-26T21:49:30.990Z,18.44
2019-06-26T21:51:59.419Z,18.31
2019-06-26T21:54:27.905Z,18.25
2019-06-26T21:56:56.417Z,18.24
2019-06-26T21:59:24.867Z,18.22
2019-06-26T22:01:53.539Z,18.04
2019-06-26T22:04:22.154Z,18.21
2019-06-26T22:06:50.740Z,17.99
2019-06-26T22:09:19.261Z,17.75
2019-06-26T22:11:47.825Z,17.79
2019-06-26T22:14:16.373Z,17.80
2019-06-26T22:16:44.895Z,17.78
2019-06-26T22:19:13.391Z,17.71
2019-06-26T22:21:41.914Z,17.83
2019-06-26T22:24:10.504Z,17.84
2019-06-26T22:26:38.911Z,17.71
2019-06-26T22:29:07.454Z,17.47
2019-06-26T22:31:35.943Z,17.51
2019-06-26T22:34:04.540Z,17.31
2019-06-26T22:36:33.000Z,17.31
2019-06-26T22:39:01.489Z,17.32
2019-06-26T22:41:29.937Z,17.46
2019-06-26T22:43:58.406Z,17.45
2019-06-26T22:46:26.915Z,17.30
2019-06-26T22:48:57.010Z,17.24
2019-06-26T22:51:25.470Z,17.06
2019-06-26T22:53:56.819Z,17.24
2019-06-26T22:56:25.775Z,17.10
2019-06-26T22:58:54.246Z,17.01
2019-06-26T23:01:22.752Z,17.05
2019-06-26T23:03:51.283Z,17.12
2019-06-26T23:06:19.806Z,17.10
2019-06-26T23:08:48.289Z,16.95
2019-06-26T23:11:16.788Z,17.03
2019-06-26T23:13:45.287Z,16.90
2019-06-26T23:16:13.754Z,16.93
2019-06-26T23:18:42.239Z,17.00
2019-06-26T23:21:10.683Z,16.93
2019-06-26T23:23:39.139Z,16.89
2019-06-26T23:26:22.937Z,16.78
2019-06-26T23:28:37.933Z,16.80
2019-06-26T23:31:06.474Z,16.86
2019-06-26T23:33:34.947Z,16.78
2019-06-26T23:36:03.402Z,16.78
2019-06-26T23:38:31.885Z,16.89
2019-06-26T23:41:00.364Z,16.75
2019-06-26T23:43:28.808Z,16.68
2019-06-26T23:45:57.333Z,16.78
2019-06-26T23:48:25.812Z,16.85
2019-06-26T23:50:54.345Z,16.94
2019-06-26T23:53:22.833Z,16.99
2019-06-26T23:56:06.572Z,17.01
2019-06-26T23:58:34.996Z,16.99
